createdAt,value
2023-05-20T00:01:09.797Z,14.78
2023-05-20T00:04:58.956Z,14.62
2023-05-20T00:08:14.670Z,14.67
2023-05-20T00:11:35.158Z,14.55
2023-05-20T00:14:34.570Z,14.59
2023-05-20T00:17:46.561Z,14.60
2023-05-20T00:20:55.426Z,14.60
2023-05-20T00:24:29.863Z,14.53
2023-05-20T00:27:47.570Z,14.64
2023-05-20T00:31:10.926Z,14.67
2023-05-20T00:34:36.194Z,14.69
2023-05-20T00:37:55.389Z,14.70
2023-05-20T00:41:04.860Z,14.74
2023-05-20T00:44:43.905Z,14.53
2023-05-20T00:48:32.245Z,14.75
2023-05-20T00:52:12.180Z,14.60
2023-05-20T00:56:01.427Z,14.64
2023-05-20T00:59:32.445Z,14.58
2023-05-20T01:03:14.152Z,14.60
2023-05-20T01:06:34.326Z,14.73
2023-05-20T01:09:38.639Z,14.61
2023-05-20T01:13:11.472Z,14.63
2023-05-20T01:16:42.819Z,14.58
2023-05-20T01:20:43.751Z,14.59
2023-05-20T01:23:51.373Z,14.56
2023-05-20T01:27:11.600Z,14.62
2023-05-20T01:30:44.528Z,14.56
2023-05-20T01:34:26.233Z,14.60
2023-05-20T01:37:58.100Z,14.51
2023-05-20T01:41:00.162Z,14.59
2023-05-20T01:44:29.081Z,14.51
2023-05-20T01:48:07.889Z,14.67
2023-05-20T01:51:39.735Z,14.44
2023-05-20T01:54:50.977Z,14.34
2023-05-20T02:01:32.629Z,14.16
2023-05-20T02:06:02.046Z,14.20
2023-05-20T02:10:30.909Z,14.11
2023-05-20T02:14:59.810Z,14.24
2023-05-20T02:19:30.992Z,14.11
2023-05-20T02:24:00.155Z,14.26
2023-05-20T02:28:29.283Z,14.34
2023-05-20T02:32:58.464Z,14.29
2023-05-20T02:37:27.274Z,14.29
2023-05-20T02:41:56.426Z,14.16
2023-05-20T02:46:25.792Z,14.33
2023-05-20T02:50:55.254Z,14.39
2023-05-20T02:55:25.527Z,14.31
2023-05-20T02:59:55.190Z,14.15
2023-05-20T03:04:24.411Z,14.35
2023-05-20T03:08:53.548Z,14.34
2023-05-20T03:13:23.120Z,14.45
2023-05-20T03:17:52.696Z,14.45
2023-05-20T03:22:21.563Z,14.38
2023-05-20T03:26:50.759Z,14.35
2023-05-20T03:31:20.160Z,14.45
2023-05-20T03:35:49.665Z,14.40
2023-05-20T03:40:18.901Z,14.49
2023-05-20T03:44:48.379Z,14.30
2023-05-20T03:49:17.256Z,14.45
2023-05-20T03:53:46.381Z,14.63
2023-05-20T04:05:05.330Z,14.55
2023-05-20T04:08:47.333Z,14.45
2023-05-20T04:12:21.894Z,14.53
2023-05-20T04:16:11.229Z,14.58
2023-05-20T04:20:00.661Z,14.49
2023-05-20T04:23:49.890Z,14.57
2023-05-20T04:27:39.050Z,14.56
2023-05-20T04:31:28.266Z,14.58
2023-05-20T04:35:17.276Z,14.57
2023-05-20T04:38:59.404Z,14.55
2023-05-20T04:42:36.744Z,14.73
2023-05-20T04:46:25.299Z,14.77
2023-05-20T04:50:14.582Z,14.68
2023-05-20T04:54:03.849Z,14.84
2023-05-20T04:57:45.964Z,14.80
2023-05-20T05:01:26.169Z,14.73
2023-05-20T05:05:05.782Z,14.99
2023-05-20T05:08:55.095Z,14.73
2023-05-20T05:12:44.455Z,14.80
2023-05-20T05:16:39.014Z,14.97
2023-05-20T05:20:28.152Z,15.02
2023-05-20T05:24:16.369Z,14.96
2023-05-20T05:28:05.410Z,14.97
2023-05-20T05:31:57.565Z,15.31
2023-05-20T05:35:47.019Z,15.56
2023-05-20T05:39:36.183Z,15.29
2023-05-20T05:43:18.447Z,15.26
2023-05-20T05:47:07.193Z,15.44
2023-05-20T05:50:56.712Z,15.22
2023-05-20T05:54:46.198Z,15.26
2023-05-20T05:58:35.243Z,15.45
2023-05-20T06:02:16.169Z,15.61
2023-05-20T06:10:18.920Z,15.84
2023-05-20T06:14:08.201Z,16.20
2023-05-20T06:17:57.009Z,16.17
2023-05-20T06:21:43.381Z,16.14
2023-05-20T06:25:32.449Z,16.06
2023-05-20T06:28:53.295Z,16.25
2023-05-20T06:32:37.209Z,16.55
2023-05-20T06:36:16.185Z,16.39
2023-05-20T06:40:05.277Z,16.23
2023-05-20T06:43:52.619Z,16.23
2023-05-20T06:47:50.063Z,16.38
2023-05-20T06:51:39.244Z,16.73
2023-05-20T06:55:13.623Z,16.41
2023-05-20T06:58:58.104Z,16.76
2023-05-20T07:02:47.210Z,16.86
2023-05-20T07:06:36.715Z,17.20
2023-05-20T07:10:17.669Z,17.31
2023-05-20T07:14:06.881Z,17.37
2023-05-20T07:17:45.414Z,17.60
2023-05-20T07:21:35.166Z,17.59
2023-05-20T07:24:52.640Z,17.44
2023-05-20T07:28:34.821Z,18.05
2023-05-20T07:32:10.093Z,17.93
2023-05-20T07:35:32.273Z,18.46
2023-05-20T07:39:06.750Z,18.35
2023-05-20T07:42:38.127Z,18.18
2023-05-20T07:45:53.579Z,18.69
2023-05-20T07:49:34.977Z,18.66
2023-05-20T07:53:24.265Z,18.58
2023-05-20T07:57:08.679Z,18.92
2023-05-20T08:00:58.452Z,19.04
2023-05-20T08:04:01.391Z,19.35
2023-05-20T08:07:45.640Z,19.42
2023-05-20T08:11:13.286Z,19.94
2023-05-20T08:14:37.973Z,19.36
2023-05-20T08:17:32.003Z,19.71
2023-05-20T08:20:35.750Z,20.54
2023-05-20T08:24:09.941Z,20.44
2023-05-20T08:27:58.807Z,20.74
2023-05-20T08:31:46.813Z,21.20
2023-05-20T08:35:31.929Z,20.23
2023-05-20T08:39:05.982Z,20.29
2023-05-20T08:42:55.286Z,20.47
2023-05-20T08:46:45.067Z,20.76
2023-05-20T08:50:24.145Z,20.32
2023-05-20T08:54:13.828Z,20.57
2023-05-20T08:58:05.084Z,20.96
2023-05-20T09:01:51.974Z,20.82
2023-05-20T09:05:33.145Z,21.28
2023-05-20T09:09:22.403Z,21.08
2023-05-20T09:13:11.811Z,20.49
2023-05-20T09:17:01.678Z,20.24
2023-05-20T09:20:53.735Z,20.65
2023-05-20T09:24:26.763Z,20.85
2023-05-20T09:28:16.753Z,20.50
2023-05-20T09:31:58.557Z,20.51
2023-05-20T09:35:47.681Z,20.53
2023-05-20T09:39:36.919Z,20.82
2023-05-20T09:43:25.057Z,20.20
2023-05-20T09:47:12.669Z,20.34
2023-05-20T09:50:56.324Z,20.43
2023-05-20T09:54:45.599Z,19.95
2023-05-20T09:58:37.562Z,20.66
2023-05-20T10:02:26.747Z,21.02
2023-05-20T10:05:55.593Z,20.93
2023-05-20T10:09:46.313Z,20.95
2023-05-20T10:13:17.583Z,21.29
2023-05-20T10:17:12.344Z,21.02
2023-05-20T10:21:02.039Z,21.21
2023-05-20T10:25:10.952Z,20.84
2023-05-20T10:29:05.496Z,21.41
2023-05-20T10:32:54.632Z,21.71
2023-05-20T10:36:29.148Z,21.55
2023-05-20T10:40:18.731Z,21.94
2023-05-20T10:43:49.156Z,22.04
2023-05-20T10:47:26.329Z,22.51
2023-05-20T10:51:18.325Z,23.25
2023-05-20T10:54:56.975Z,22.60
2023-05-20T10:58:46.845Z,22.65
2023-05-20T11:02:36.039Z,23.47
2023-05-20T11:06:20.864Z,23.62
2023-05-20T11:10:09.908Z,23.27
2023-05-20T11:13:55.145Z,22.92
2023-05-20T11:17:46.304Z,22.41
2023-05-20T11:21:23.003Z,23.41
2023-05-20T11:24:55.930Z,24.00
2023-05-20T11:28:44.932Z,23.28
2023-05-20T11:32:28.090Z,22.12
2023-05-20T11:36:29.731Z,22.39
2023-05-20T11:40:18.820Z,23.99
2023-05-20T11:44:08.263Z,23.62
2023-05-20T11:48:01.647Z,23.72
2023-05-20T11:51:35.343Z,24.36
2023-05-20T11:55:24.042Z,23.24
2023-05-20T11:59:00.677Z,23.02
2023-05-20T12:02:46.588Z,25.05
2023-05-20T12:06:36.997Z,25.78
2023-05-20T12:10:26.186Z,27.28
2023-05-20T12:13:59.326Z,27.00
2023-05-20T12:18:14.750Z,24.95
2023-05-20T12:21:35.597Z,26.89
2023-05-20T12:25:06.953Z,26.01
2023-05-20T12:28:55.289Z,26.66
2023-05-20T12:32:44.776Z,24.65
2023-05-20T12:36:19.251Z,24.26
2023-05-20T12:39:52.137Z,24.17
2023-05-20T12:43:41.624Z,24.84
2023-05-20T12:47:13.422Z,25.69
2023-05-20T12:50:52.368Z,25.63
2023-05-20T12:54:30.987Z,26.76
2023-05-20T12:58:14.582Z,28.79
2023-05-20T13:02:03.715Z,27.66
2023-05-20T13:05:52.996Z,26.21
2023-05-20T13:09:08.706Z,26.61
2023-05-20T13:12:58.776Z,26.16
2023-05-20T13:16:28.424Z,25.91
2023-05-20T13:20:01.089Z,25.34
2023-05-20T13:23:50.770Z,24.75
2023-05-20T13:27:40.093Z,24.72
2023-05-20T13:31:19.399Z,23.99
2023-05-20T13:34:59.015Z,24.57
2023-05-20T13:38:48.824Z,27.14
2023-05-20T13:41:39.728Z,26.81
2023-05-20T13:45:20.948Z,26.96
2023-05-20T13:48:52.603Z,27.14
2023-05-20T13:51:46.581Z,26.58
2023-05-20T13:54:49.245Z,25.15
2023-05-20T13:57:56.076Z,25.09
2023-05-20T14:01:35.020Z,26.59
2023-05-20T14:05:15.880Z,27.08
2023-05-20T14:08:37.252Z,25.74
2023-05-20T14:12:16.418Z,25.52
2023-05-20T14:22:05.056Z,26.23
2023-05-20T14:25:38.011Z,25.87
2023-05-20T14:29:27.337Z,25.20
2023-05-20T14:33:17.754Z,24.71
2023-05-20T14:37:08.716Z,26.00
2023-05-20T14:41:34.266Z,26.71
2023-05-20T14:45:46.352Z,26.34
2023-05-20T14:49:28.764Z,26.84
2023-05-20T14:52:58.803Z,26.33
2023-05-20T14:56:09.744Z,27.28
2023-05-20T14:59:36.805Z,26.76
2023-05-20T15:03:00.604Z,26.73
2023-05-20T15:06:32.068Z,26.99
2023-05-20T15:09:59.240Z,25.84
2023-05-20T15:14:08.789Z,25.50
2023-05-20T15:17:27.802Z,24.99
2023-05-20T15:21:10.432Z,24.60
2023-05-20T15:24:33.311Z,24.63
2023-05-20T15:28:23.315Z,24.66
2023-05-20T15:31:27.267Z,25.05
2023-05-20T15:35:16.735Z,25.27
2023-05-20T15:39:06.202Z,26.23
2023-05-20T15:42:50.411Z,26.08
2023-05-20T15:46:45.054Z,26.46
2023-05-20T15:50:38.674Z,26.18
2023-05-20T15:53:48.752Z,26.43
2023-05-20T15:57:38.494Z,25.68
2023-05-20T16:01:08.454Z,25.69
2023-05-20T16:04:48.450Z,25.76
2023-05-20T16:08:12.960Z,25.45
2023-05-20T16:12:01.904Z,25.31
2023-05-20T16:15:17.485Z,25.37
2023-05-20T16:18:56.947Z,25.87
2023-05-20T16:22:39.104Z,25.20
2023-05-20T16:26:22.170Z,25.03
2023-05-20T16:29:41.649Z,25.21
2023-05-20T16:32:54.809Z,25.63
2023-05-20T16:36:45.384Z,25.58
2023-05-20T16:40:35.965Z,25.85
2023-05-20T16:44:09.698Z,26.25
2023-05-20T16:47:58.961Z,26.40
2023-05-20T16:51:47.827Z,26.32
2023-05-20T16:55:19.787Z,25.75
2023-05-20T16:59:09.071Z,26.00
2023-05-20T17:02:58.381Z,26.14
2023-05-20T17:06:48.442Z,25.66
2023-05-20T17:10:39.125Z,25.33
2023-05-20T17:14:24.225Z,25.42
2023-05-20T17:18:20.996Z,25.31
2023-05-20T17:22:10.896Z,24.83
2023-05-20T17:26:00.661Z,24.19
2023-05-20T17:29:38.770Z,24.36
2023-05-20T17:32:57.022Z,24.48
2023-05-20T17:36:33.733Z,24.45
2023-05-20T17:40:13.766Z,24.29
2023-05-20T17:43:29.427Z,24.39
2023-05-20T17:46:48.589Z,24.31
2023-05-20T17:50:00.211Z,24.25
2023-05-20T17:53:26.115Z,24.11
2023-05-20T17:57:15.431Z,24.19
2023-05-20T18:00:31.763Z,24.13
2023-05-20T18:04:21.543Z,24.00
2023-05-20T18:07:51.073Z,23.83
2023-05-20T18:11:40.593Z,23.40
2023-05-20T18:15:31.045Z,23.20
2023-05-20T18:19:21.617Z,22.94
2023-05-20T18:23:01.921Z,22.85
2023-05-20T18:26:34.703Z,22.73
2023-05-20T18:30:03.447Z,22.55
2023-05-20T18:33:46.537Z,22.43
2023-05-20T18:36:46.210Z,22.37
2023-05-20T18:40:15.567Z,22.25
2023-05-20T18:44:02.815Z,21.93
2023-05-20T18:47:40.849Z,21.74
2023-05-20T18:51:21.644Z,21.69
2023-05-20T18:54:31.451Z,21.51
2023-05-20T18:57:22.654Z,21.23
2023-05-20T19:00:46.045Z,21.04
2023-05-20T19:04:35.635Z,20.87
2023-05-20T19:08:25.967Z,20.80
2023-05-20T19:12:11.651Z,20.62
2023-05-20T19:16:18.633Z,20.43
2023-05-20T19:20:02.573Z,20.30
2023-05-20T19:23:51.798Z,20.16
2023-05-20T19:27:56.613Z,20.14
2023-05-20T19:31:30.343Z,19.98
2023-05-20T19:34:50.714Z,19.91
2023-05-20T19:38:40.509Z,19.78
2023-05-20T19:42:51.806Z,19.71
2023-05-20T19:46:31.414Z,19.67
2023-05-20T19:50:20.959Z,19.72
2023-05-20T19:54:10.648Z,19.65
2023-05-20T19:57:57.359Z,19.69
2023-05-20T20:01:48.837Z,19.80
2023-05-20T20:05:46.318Z,19.73
2023-05-20T20:09:56.548Z,19.55
2023-05-20T20:13:45.474Z,19.37
2023-05-20T20:17:55.444Z,19.22
2023-05-20T20:21:46.478Z,19.23
2023-05-20T20:25:20.783Z,19.16
2023-05-20T20:28:58.759Z,19.07
2023-05-20T20:32:48.968Z,19.07
2023-05-20T20:36:38.470Z,19.01
2023-05-20T20:40:31.556Z,18.90
2023-05-20T20:44:20.272Z,18.87
2023-05-20T20:48:00.928Z,18.85
2023-05-20T20:51:50.502Z,18.88
2023-05-20T20:55:39.987Z,18.89
2023-05-20T20:59:31.337Z,18.99
2023-05-20T21:03:03.818Z,18.91
2023-05-20T21:06:55.273Z,18.85
2023-05-20T21:10:44.729Z,18.80
2023-05-20T21:14:12.824Z,18.68
2023-05-20T21:18:02.146Z,18.68
2023-05-20T21:21:51.969Z,18.55
2023-05-20T21:25:41.615Z,18.40
2023-05-20T21:29:23.301Z,18.34
2023-05-20T21:33:13.471Z,18.24
2023-05-20T21:37:03.124Z,18.23
2023-05-20T21:40:45.753Z,18.20
2023-05-20T21:44:35.326Z,18.19
2023-05-20T21:48:11.298Z,18.17
2023-05-20T21:52:00.724Z,18.17
2023-05-20T21:55:34.344Z,18.17
2023-05-20T21:59:17.097Z,18.21
2023-05-20T22:02:30.004Z,18.17
2023-05-20T22:06:05.123Z,18.25
2023-05-20T22:09:45.382Z,18.27
2023-05-20T22:13:04.504Z,18.25
2023-05-20T22:16:56.235Z,18.21
2023-05-20T22:20:46.397Z,18.16
2023-05-20T22:24:35.475Z,18.19
2023-05-20T22:28:15.100Z,18.19
2023-05-20T22:31:43.607Z,18.20
2023-05-20T22:35:00.416Z,18.32
2023-05-20T22:38:36.049Z,18.29
2023-05-20T22:42:04.830Z,18.18
2023-05-20T22:45:39.248Z,18.21
2023-05-20T22:49:14.634Z,18.15
2023-05-20T22:52:56.362Z,18.04
2023-05-20T22:56:37.073Z,17.79
2023-05-20T23:00:22.524Z,17.81
2023-05-20T23:04:10.752Z,17.81
2023-05-20T23:08:00.270Z,17.85
2023-05-20T23:11:40.382Z,17.91
2023-05-20T23:15:29.729Z,18.05
2023-05-20T23:19:19.900Z,18.19
2023-05-20T23:23:11.572Z,18.30
2023-05-20T23:27:01.922Z,18.37
2023-05-20T23:30:35.709Z,18.22
2023-05-20T23:34:25.208Z,17.91
2023-05-20T23:38:15.259Z,18.00
2023-05-20T23:41:56.000Z,18.09
2023-05-20T23:45:45.705Z,18.14
2023-05-20T23:49:35.453Z,18.22
2023-05-20T23:53:24.750Z,18.26
2023-05-20T23:57:12.951Z,18.21
